createdAt,value
2023-03-10T00:01:16.200Z,99028.03
2023-03-10T00:03:42.550Z,99019.44
2023-03-10T00:06:09.829Z,99030.28
2023-03-10T00:08:36.212Z,99027.53
2023-03-10T00:11:02.553Z,99018.38
2023-03-10T00:13:28.917Z,99030.38
2023-03-10T00:15:55.293Z,99040.75
2023-03-10T00:18:21.691Z,99036.94
2023-03-10T00:20:48.067Z,99015.69
2023-03-10T00:23:14.502Z,99012.09
2023-03-10T00:25:40.816Z,99008.47
2023-03-10T00:28:07.162Z,99002.22
2023-03-10T00:30:33.512Z,98984.88
2023-03-10T00:32:59.850Z,98984.94
2023-03-10T00:35:26.189Z,98983.59
2023-03-10T00:37:52.524Z,98973.34
2023-03-10T00:40:18.855Z,98979.63
2023-03-10T00:42:45.191Z,98981.25
2023-03-10T00:45:11.666Z,98979.69
2023-03-10T00:50:31.944Z,98968.06
2023-03-10T00:52:58.352Z,98961.91
2023-03-10T00:55:24.683Z,98959.56
2023-03-10T00:57:53.800Z,98959.63
2023-03-10T01:00:20.112Z,98962.34
2023-03-10T01:05:30.507Z,98958.78
2023-03-10T01:07:56.860Z,98953.75
2023-03-10T01:10:23.329Z,98959.06
2023-03-10T01:12:49.706Z,98956.19
2023-03-10T01:15:16.051Z,98947.09
2023-03-10T01:20:36.520Z,98952.19
2023-03-10T01:23:02.909Z,98953.94
2023-03-10T01:25:29.236Z,98935.97
2023-03-10T01:27:55.582Z,98938.88
2023-03-10T01:30:21.917Z,98934.00
2023-03-10T01:35:32.190Z,98921.16
2023-03-10T01:37:58.563Z,98921.97
2023-03-10T01:40:27.763Z,98912.41
2023-03-10T01:42:54.104Z,98911.09
2023-03-10T01:45:20.472Z,98909.31
2023-03-10T01:50:40.694Z,98904.09
2023-03-10T01:53:07.057Z,98897.94
2023-03-10T01:55:33.410Z,98895.34
2023-03-10T01:57:59.761Z,98900.72
2023-03-10T02:00:26.210Z,98887.28
2023-03-10T02:05:46.522Z,98874.53
2023-03-10T02:08:12.877Z,98866.66
2023-03-10T02:10:39.200Z,98860.78
2023-03-10T02:13:05.575Z,98858.28
2023-03-10T02:15:31.891Z,98859.31
2023-03-10T02:20:51.828Z,98838.22
2023-03-10T02:23:18.239Z,98827.81
2023-03-10T02:25:44.600Z,98834.16
2023-03-10T02:28:10.980Z,98836.09
2023-03-10T02:30:37.346Z,98837.72
2023-03-10T02:35:47.178Z,98829.94
2023-03-10T02:38:13.525Z,98824.22
2023-03-10T02:40:39.962Z,98817.63
2023-03-10T02:43:06.324Z,98819.63
2023-03-10T02:45:32.719Z,98806.19
2023-03-10T02:50:52.787Z,98801.84
2023-03-10T02:53:19.138Z,98801.22
2023-03-10T02:55:45.461Z,98807.81
2023-03-10T02:58:11.807Z,98794.13
2023-03-10T03:00:38.142Z,98782.19
2023-03-10T03:05:58.388Z,98775.69
2023-03-10T03:08:24.747Z,98775.25
2023-03-10T03:10:51.051Z,98776.19
2023-03-10T03:13:18.342Z,98760.53
2023-03-10T03:15:44.671Z,98754.09
2023-03-10T03:20:55.050Z,98728.88
2023-03-10T03:23:21.401Z,98720.16
2023-03-10T03:25:47.826Z,98713.38
2023-03-10T03:28:15.025Z,98711.13
2023-03-10T03:30:41.338Z,98707.84
2023-03-10T03:33:07.716Z,98700.72
2023-03-10T03:35:34.074Z,98700.66
2023-03-10T03:38:00.465Z,98701.66
2023-03-10T03:40:26.786Z,98700.13
2023-03-10T03:42:53.117Z,98691.81
2023-03-10T03:45:19.460Z,98682.25
2023-03-10T03:47:45.877Z,98670.06
2023-03-10T03:50:12.273Z,98669.97
2023-03-10T03:52:38.590Z,98672.66
2023-03-10T03:55:04.935Z,98663.63
2023-03-10T03:57:31.270Z,98657.31
2023-03-10T03:59:57.619Z,98661.97
2023-03-10T04:02:23.983Z,98661.97
2023-03-10T04:04:53.276Z,98651.47
2023-03-10T04:07:19.612Z,98645.59
2023-03-10T04:09:45.948Z,98639.47
2023-03-10T04:12:13.165Z,98648.66
2023-03-10T04:14:39.515Z,98626.28
2023-03-10T04:17:05.864Z,98617.84
2023-03-10T04:19:32.196Z,98605.03
2023-03-10T04:21:58.577Z,98605.56
2023-03-10T04:24:24.913Z,98612.75
2023-03-10T04:26:51.247Z,98604.63
2023-03-10T04:29:18.446Z,98602.34
2023-03-10T04:31:50.496Z,98612.06
2023-03-10T04:34:25.458Z,98612.06
2023-03-10T04:36:51.791Z,98616.16
2023-03-10T04:39:18.162Z,98607.38
2023-03-10T04:41:44.551Z,98605.31
2023-03-10T04:44:24.440Z,98608.69
2023-03-10T04:46:56.428Z,98601.31
2023-03-10T04:49:22.767Z,98597.34
2023-03-10T04:54:43.085Z,98586.28
2023-03-10T04:57:10.427Z,98580.53
2023-03-10T04:59:36.763Z,98561.63
2023-03-10T05:02:03.129Z,98560.59
2023-03-10T05:04:29.618Z,98561.03
2023-03-10T05:09:39.680Z,98548.53
2023-03-10T05:12:06.026Z,98541.75
2023-03-10T05:14:33.298Z,98528.44
2023-03-10T05:16:59.649Z,98524.69
2023-03-10T05:19:25.962Z,98509.81
2023-03-10T05:24:46.149Z,98497.44
2023-03-10T05:27:12.494Z,98510.31
2023-03-10T05:29:38.828Z,98534.13
2023-03-10T05:32:05.169Z,98528.16
2023-03-10T05:34:31.661Z,98521.09
2023-03-10T05:39:53.002Z,98527.50
2023-03-10T05:42:20.418Z,98503.88
2023-03-10T05:44:46.889Z,98496.13
2023-03-10T05:47:13.360Z,98489.75
2023-03-10T05:49:39.822Z,98481.56
2023-03-10T05:54:51.153Z,98482.69
2023-03-10T05:57:18.523Z,98495.97
2023-03-10T05:59:45.983Z,98492.00
2023-03-10T06:02:14.162Z,98497.09
2023-03-10T06:04:40.613Z,98495.44
2023-03-10T06:10:02.045Z,98475.34
2023-03-10T06:12:28.514Z,98466.81
2023-03-10T06:14:54.994Z,98466.47
2023-03-10T06:17:21.475Z,98472.56
2023-03-10T06:19:48.872Z,98453.81
2023-03-10T06:25:09.164Z,98447.53
2023-03-10T06:27:35.724Z,98458.38
2023-03-10T06:30:03.158Z,98460.72
2023-03-10T06:32:29.679Z,98466.47
2023-03-10T06:34:56.222Z,98455.16
2023-03-10T06:40:07.709Z,98454.06
2023-03-10T06:42:34.226Z,98437.63
2023-03-10T06:45:01.838Z,98422.56
2023-03-10T06:47:28.589Z,98430.75
2023-03-10T06:49:55.250Z,98440.28
2023-03-10T06:55:16.851Z,98431.97
2023-03-10T06:57:43.322Z,98425.41
2023-03-10T07:00:09.797Z,98426.97
2023-03-10T07:02:36.260Z,98420.22
2023-03-10T07:05:02.848Z,98412.69
2023-03-10T07:10:15.415Z,98416.66
2023-03-10T07:12:42.802Z,98412.09
2023-03-10T07:15:09.318Z,98407.22
2023-03-10T07:17:36.688Z,98398.47
2023-03-10T07:20:03.171Z,98396.56
2023-03-10T07:25:24.760Z,98388.78
2023-03-10T07:27:51.215Z,98384.03
2023-03-10T07:30:17.690Z,98392.38
2023-03-10T07:32:44.284Z,98400.44
2023-03-10T07:35:11.700Z,98400.13
2023-03-10T07:40:33.836Z,98388.47
2023-03-10T07:43:00.350Z,98377.69
2023-03-10T07:45:27.630Z,98377.13
2023-03-10T07:47:54.092Z,98376.69
2023-03-10T07:50:21.504Z,98360.25
2023-03-10T07:55:34.059Z,98353.72
2023-03-10T07:58:00.758Z,98346.03
2023-03-10T08:00:28.226Z,98341.28
2023-03-10T08:02:54.783Z,98335.19
2023-03-10T08:05:21.420Z,98329.53
2023-03-10T08:07:47.974Z,98333.72
2023-03-10T08:10:14.471Z,98319.09
2023-03-10T08:12:41.472Z,98325.16
2023-03-10T08:15:08.205Z,98317.94
2023-03-10T08:17:34.680Z,98311.94
2023-03-10T08:20:01.184Z,98308.19
2023-03-10T08:22:28.693Z,98304.88
2023-03-10T08:24:55.185Z,98313.31
2023-03-10T08:27:22.614Z,98320.06
2023-03-10T08:29:49.105Z,98314.00
2023-03-10T08:32:15.618Z,98317.28
2023-03-10T08:34:43.097Z,98306.94
2023-03-10T08:37:10.514Z,98310.06
2023-03-10T08:39:37.649Z,98311.03
2023-03-10T08:42:05.128Z,98297.34
2023-03-10T08:44:32.503Z,98296.72
2023-03-10T08:46:59.993Z,98295.41
2023-03-10T08:49:27.433Z,98304.41
2023-03-10T08:51:53.960Z,98310.84
2023-03-10T08:54:20.441Z,98312.94
2023-03-10T08:56:46.875Z,98318.66
2023-03-10T08:59:14.200Z,98302.59
2023-03-10T09:01:40.764Z,98285.84
2023-03-10T09:04:08.222Z,98294.63
2023-03-10T09:06:34.669Z,98288.31
2023-03-10T09:09:02.142Z,98274.00
2023-03-10T09:11:29.748Z,98299.06
2023-03-10T09:13:57.271Z,98254.41
2023-03-10T09:16:24.767Z,98274.56
2023-03-10T09:18:51.243Z,98243.41
2023-03-10T09:21:18.663Z,98272.47
2023-03-10T09:23:46.053Z,98248.00
2023-03-10T09:28:57.524Z,98240.00
2023-03-10T09:31:24.071Z,98253.41
2023-03-10T09:33:51.486Z,98241.00
2023-03-10T09:36:18.873Z,98250.75
2023-03-10T09:38:45.422Z,98233.25
2023-03-10T09:43:57.151Z,98238.88
2023-03-10T09:46:24.512Z,98232.66
2023-03-10T09:48:51.913Z,98236.00
2023-03-10T09:51:19.300Z,98243.41
2023-03-10T09:53:48.643Z,98219.25
2023-03-10T09:59:10.850Z,98219.47
2023-03-10T10:01:37.354Z,98222.47
2023-03-10T10:04:04.897Z,98225.47
2023-03-10T10:06:32.415Z,98220.47
2023-03-10T10:09:04.927Z,98207.84
2023-03-10T10:14:30.023Z,98200.63
2023-03-10T10:16:58.422Z,98185.13
2023-03-10T10:19:24.910Z,98170.97
2023-03-10T10:21:51.372Z,98175.47
2023-03-10T10:24:18.812Z,98171.16
2023-03-10T10:29:31.413Z,98174.25
2023-03-10T10:31:57.882Z,98167.50
2023-03-10T10:34:25.340Z,98171.47
2023-03-10T10:36:52.734Z,98162.72
2023-03-10T10:39:19.164Z,98163.16
2023-03-10T10:44:29.554Z,98161.41
2023-03-10T10:46:56.976Z,98159.84
2023-03-10T10:49:24.392Z,98166.81
2023-03-10T10:51:50.870Z,98159.16
2023-03-10T10:54:18.397Z,98162.81
2023-03-10T10:59:29.181Z,98149.84
2023-03-10T11:01:56.568Z,98153.72
2023-03-10T11:04:23.049Z,98142.75
2023-03-10T11:06:49.541Z,98137.22
2023-03-10T11:09:16.912Z,98142.97
2023-03-10T11:14:37.650Z,98137.41
2023-03-10T11:17:05.086Z,98147.94
2023-03-10T11:19:31.557Z,98142.72
2023-03-10T11:21:58.033Z,98142.84
2023-03-10T11:24:25.997Z,98129.53
2023-03-10T11:29:47.691Z,98127.53
2023-03-10T11:32:14.369Z,98132.16
2023-03-10T11:34:41.736Z,98134.50
2023-03-10T11:37:08.217Z,98126.50
2023-03-10T11:39:34.704Z,98115.84
2023-03-10T11:44:45.393Z,98107.53
2023-03-10T11:47:11.904Z,98105.41
2023-03-10T11:49:39.346Z,98091.09
2023-03-10T11:52:06.790Z,98108.94
2023-03-10T11:54:34.161Z,98096.88
2023-03-10T11:59:56.213Z,98087.78
2023-03-10T12:02:22.705Z,98093.06
2023-03-10T12:04:49.216Z,98097.69
2023-03-10T12:07:15.697Z,98091.44
2023-03-10T12:09:42.233Z,98096.53
2023-03-10T12:15:02.970Z,98088.22
2023-03-10T12:17:29.497Z,98088.97
2023-03-10T12:19:55.983Z,98079.69
2023-03-10T12:22:23.443Z,98084.91
2023-03-10T12:24:49.923Z,98079.03
2023-03-10T12:30:00.265Z,98074.13
2023-03-10T12:32:26.895Z,98080.00
2023-03-10T12:34:53.421Z,98072.47
2023-03-10T12:37:20.841Z,98072.47
2023-03-10T12:39:48.260Z,98074.00
2023-03-10T12:44:59.740Z,98071.66
2023-03-10T12:47:26.226Z,98073.22
2023-03-10T12:49:53.622Z,98059.34
2023-03-10T12:52:21.032Z,98060.91
2023-03-10T12:54:47.582Z,98064.75
2023-03-10T12:57:16.830Z,98065.38
2023-03-10T12:59:43.453Z,98049.09
2023-03-10T13:02:10.905Z,98044.13
2023-03-10T13:04:38.336Z,98052.75
2023-03-10T13:07:05.805Z,98052.75
2023-03-10T13:09:33.173Z,98054.28
2023-03-10T13:11:59.700Z,98051.50
2023-03-10T13:14:26.193Z,98041.22
2023-03-10T13:16:52.726Z,98046.31
2023-03-10T13:19:19.230Z,98045.06
2023-03-10T13:21:46.643Z,98045.50
2023-03-10T13:24:13.140Z,98058.63
2023-03-10T13:26:40.586Z,98055.09
2023-03-10T13:29:08.071Z,98058.16
2023-03-10T13:31:34.617Z,98056.63
2023-03-10T13:34:01.167Z,98064.50
2023-03-10T13:36:27.929Z,98068.06
2023-03-10T13:38:54.418Z,98065.28
2023-03-10T13:41:20.914Z,98059.72
2023-03-10T13:43:47.457Z,98066.81
2023-03-10T13:46:14.950Z,98066.81
2023-03-10T13:48:42.690Z,98071.16
2023-03-10T13:51:09.139Z,98073.00
2023-03-10T13:53:36.609Z,98071.91
2023-03-10T13:56:04.056Z,98074.81
2023-03-10T13:58:31.500Z,98067.41
2023-03-10T14:00:58.989Z,98072.19
2023-03-10T14:03:26.539Z,98067.91
2023-03-10T14:05:54.844Z,98069.09
2023-03-10T14:08:21.344Z,98069.88
2023-03-10T14:10:47.835Z,98074.78
2023-03-10T14:13:15.263Z,98069.09
2023-03-10T14:18:36.993Z,98068.31
2023-03-10T14:21:05.246Z,98065.53
2023-03-10T14:23:31.772Z,98073.84
2023-03-10T14:25:59.263Z,98070.75
2023-03-10T14:28:26.713Z,98073.53
2023-03-10T14:33:48.482Z,98075.25
2023-03-10T14:36:15.050Z,98069.69
2023-03-10T14:38:41.524Z,98072.47
2023-03-10T14:41:08.898Z,98073.53
2023-03-10T14:43:36.163Z,98072.47
2023-03-10T14:48:47.592Z,98070.91
2023-03-10T14:51:25.652Z,98069.69
2023-03-10T14:54:00.221Z,98064.13
2023-03-10T14:56:26.685Z,98061.69
2023-03-10T14:58:53.230Z,98069.53
2023-03-10T15:04:05.073Z,98067.69
2023-03-10T15:06:31.560Z,98063.03
2023-03-10T15:08:58.950Z,98064.91
2023-03-10T15:11:36.560Z,98057.03
2023-03-10T15:14:03.995Z,98065.34
2023-03-10T15:19:24.378Z,98063.22
2023-03-10T15:21:50.935Z,98063.56
2023-03-10T15:24:17.427Z,98060.31
2023-03-10T15:26:44.827Z,98050.88
2023-03-10T15:29:11.278Z,98059.22
2023-03-10T15:34:21.616Z,98053.34
2023-03-10T15:36:48.053Z,98058.78
2023-03-10T15:39:29.126Z,98054.28
2023-03-10T15:41:57.807Z,98060.06
2023-03-10T15:44:27.254Z,98061.44
2023-03-10T15:49:40.759Z,98062.25
2023-03-10T15:52:08.009Z,98061.38
2023-03-10T15:54:35.268Z,98066.31
2023-03-10T15:57:01.650Z,98061.22
2023-03-10T15:59:28.921Z,98054.13
2023-03-10T16:04:52.074Z,98057.94
2023-03-10T16:07:18.560Z,98056.84
2023-03-10T16:09:45.817Z,98058.84
2023-03-10T16:12:14.440Z,98056.09
2023-03-10T16:14:40.854Z,98058.53
2023-03-10T16:19:51.415Z,98060.06
2023-03-10T16:22:17.893Z,98064.06
2023-03-10T16:24:45.358Z,98060.84
2023-03-10T16:27:12.645Z,98068.53
2023-03-10T16:29:39.900Z,98062.53
2023-03-10T16:35:00.460Z,98070.22
2023-03-10T16:37:29.650Z,98073.91
2023-03-10T16:39:56.070Z,98068.66
2023-03-10T16:42:22.549Z,98072.03
2023-03-10T16:44:49.889Z,98073.91
2023-03-10T16:50:12.221Z,98066.63
2023-03-10T16:52:39.545Z,98067.19
2023-03-10T16:55:06.796Z,98070.91
2023-03-10T16:57:33.204Z,98064.59
2023-03-10T16:59:59.668Z,98068.03
2023-03-10T17:05:10.059Z,98058.03
2023-03-10T17:07:46.363Z,98063.47
2023-03-10T17:10:19.142Z,98061.56
2023-03-10T17:12:45.630Z,98063.44
2023-03-10T17:15:14.750Z,98054.38
2023-03-10T17:20:36.116Z,98054.69
2023-03-10T17:23:02.468Z,98048.81
2023-03-10T17:28:00.644Z,98042.06
2023-03-10T17:30:27.043Z,98046.69
2023-03-10T17:35:47.371Z,98043.28
2023-03-10T17:38:14.784Z,98041.13
2023-03-10T17:40:41.194Z,98038.03
2023-03-10T17:43:23.079Z,98038.03
2023-03-10T17:45:54.826Z,98046.69
2023-03-10T17:51:15.276Z,98037.44
2023-03-10T17:53:43.596Z,98041.91
2023-03-10T17:56:10.163Z,98048.22
2023-03-10T17:58:36.822Z,98034.66
2023-03-10T18:01:04.147Z,98036.69
2023-03-10T18:06:14.549Z,98036.06
2023-03-10T18:08:43.755Z,98028.97
2023-03-10T18:11:10.552Z,98028.34
2023-03-10T18:13:37.008Z,98030.50
2023-03-10T18:16:03.545Z,98033.13
2023-03-10T18:21:24.997Z,98032.78
2023-03-10T18:23:54.618Z,98029.56
2023-03-10T18:26:21.058Z,98028.34
2023-03-10T18:28:47.467Z,98028.75
2023-03-10T18:31:15.089Z,98023.84
2023-03-10T18:36:28.416Z,98025.84
2023-03-10T18:38:56.771Z,98026.75
2023-03-10T18:41:23.392Z,98021.78
2023-03-10T18:43:53.333Z,98013.28
2023-03-10T18:46:19.770Z,97994.28
2023-03-10T18:51:42.363Z,98007.56
2023-03-10T18:54:08.815Z,98002.47
2023-03-10T18:56:36.144Z,97989.03
2023-03-10T18:59:02.600Z,97985.19
2023-03-10T19:01:29.941Z,97986.41
2023-03-10T19:06:52.253Z,97981.16
2023-03-10T19:09:19.049Z,97981.63
2023-03-10T19:11:45.571Z,97974.22
2023-03-10T19:14:12.072Z,97971.13
2023-03-10T19:16:38.483Z,97971.13
2023-03-10T19:22:01.623Z,97962.47
2023-03-10T19:24:30.856Z,97965.09
2023-03-10T19:26:58.198Z,97964.34
2023-03-10T19:29:25.635Z,97963.41
2023-03-10T19:31:52.118Z,97963.72
2023-03-10T19:37:03.589Z,97958.03
2023-03-10T19:39:31.002Z,97950.78
2023-03-10T19:41:57.546Z,97952.31
2023-03-10T19:44:24.098Z,97949.69
2023-03-10T19:46:51.555Z,97948.59
2023-03-10T19:49:18.124Z,97952.47
2023-03-10T19:51:44.649Z,97940.91
2023-03-10T19:54:11.163Z,97943.69
2023-03-10T19:56:38.610Z,97941.38
2023-03-10T19:59:06.819Z,97941.84
2023-03-10T20:01:34.324Z,97941.69
2023-03-10T20:04:00.845Z,97939.34
2023-03-10T20:06:27.394Z,97936.59
2023-03-10T20:08:54.825Z,97934.25
2023-03-10T20:11:21.373Z,97932.09
2023-03-10T20:13:47.918Z,97932.09
2023-03-10T20:16:15.411Z,97933.66
2023-03-10T20:18:42.220Z,97922.09
2023-03-10T20:21:08.778Z,97924.25
2023-03-10T20:23:36.250Z,97924.09
2023-03-10T20:26:02.786Z,97926.09
2023-03-10T20:28:29.419Z,97931.94
2023-03-10T20:30:55.949Z,97937.66
2023-03-10T20:33:23.415Z,97937.03
2023-03-10T20:35:50.116Z,97942.44
2023-03-10T20:38:17.656Z,97943.69
2023-03-10T20:40:44.230Z,97919.16
2023-03-10T20:43:10.719Z,97911.59
2023-03-10T20:45:37.268Z,97904.81
2023-03-10T20:48:03.820Z,97894.03
2023-03-10T20:50:31.261Z,97895.09
2023-03-10T20:52:57.765Z,97891.56
2023-03-10T20:55:24.267Z,97889.69
2023-03-10T20:57:51.696Z,97887.38
2023-03-10T21:00:19.152Z,97876.72
2023-03-10T21:02:46.566Z,97881.38
2023-03-10T21:05:14.013Z,97878.59
2023-03-10T21:10:24.437Z,97870.75
2023-03-10T21:12:51.861Z,97866.13
2023-03-10T21:15:18.494Z,97863.47
2023-03-10T21:17:45.087Z,97854.97
2023-03-10T21:20:12.760Z,97855.41
2023-03-10T21:25:33.166Z,97848.50
2023-03-10T21:27:59.665Z,97851.91
2023-03-10T21:30:26.283Z,97839.88
2023-03-10T21:32:53.828Z,97838.34
2023-03-10T21:35:21.261Z,97829.09
2023-03-10T21:40:43.331Z,97821.22
2023-03-10T21:43:09.827Z,97806.56
2023-03-10T21:45:36.281Z,97816.13
2023-03-10T21:48:03.663Z,97810.56
2023-03-10T21:50:31.088Z,97811.81
2023-03-10T21:55:52.352Z,97803.19
2023-03-10T21:58:19.130Z,97804.72
2023-03-10T22:00:46.521Z,97792.53
2023-03-10T22:03:13.001Z,97784.50
2023-03-10T22:05:39.482Z,97783.88
2023-03-10T22:10:50.800Z,97773.53
2023-03-10T22:13:18.178Z,97770.59
2023-03-10T22:15:45.607Z,97767.81
2023-03-10T22:18:12.111Z,97754.88
2023-03-10T22:20:38.591Z,97761.03
2023-03-10T22:26:00.119Z,97750.09
2023-03-10T22:28:26.664Z,97746.09
2023-03-10T22:30:53.213Z,97746.41
2023-03-10T22:33:20.651Z,97737.13
2023-03-10T22:35:47.131Z,97737.59
2023-03-10T22:40:58.615Z,97732.50
2023-03-10T22:43:25.109Z,97725.28
2023-03-10T22:45:51.587Z,97729.91
2023-03-10T22:48:18.158Z,97723.72
2023-03-10T22:50:45.560Z,97715.56
2023-03-10T22:56:07.219Z,97717.69
2023-03-10T22:58:34.620Z,97715.69
2023-03-10T23:01:02.026Z,97713.22
2023-03-10T23:03:28.481Z,97714.47
2023-03-10T23:05:54.917Z,97717.88
2023-03-10T23:11:13.314Z,97728.34
2023-03-10T23:13:39.780Z,97727.59
2023-03-10T23:16:13.370Z,97723.72
2023-03-10T23:18:40.753Z,97732.66
2023-03-10T23:21:07.210Z,97724.47
2023-03-10T23:26:35.642Z,97719.53
2023-03-10T23:29:02.106Z,97726.63
2023-03-10T23:31:36.385Z,97713.69
2023-03-10T23:34:02.809Z,97713.22
2023-03-10T23:36:30.251Z,97718.16
2023-03-10T23:41:56.330Z,97723.25
2023-03-10T23:44:30.353Z,97712.44
2023-03-10T23:46:57.739Z,97716.00
2023-03-10T23:49:30.321Z,97713.53
2023-03-10T23:51:56.757Z,97710.75
2023-03-10T23:57:15.339Z,97706.41
2023-03-10T23:59:41.780Z,97714.31
